首页
METAR-TAF:

METAR-TAF

机场 :

宽宏, 堪薩斯州, 美国

纬度: 37-03N, 经度: 100-58W, 海拔: 879米

当前天气观测

该预报发布于42分钟前的23:56 UTC
静风
温度 9°C
湿度 40%
气压 1018 hPa
能見度: 14.5公里
天空无云

METAR: KLBL 172356Z AUTO 00000KT 9SM CLR 09/M04 A3005 RMK AO2 SLP179 T00941044 10150 20094 55008

时间: 18:38 (00:38 UTC)

预报

该预报发布于1小时和4分钟前的23:34 UTC
预报有效从18日的 00点(UTC)到 18日的 24点(UTC)
风速10节,风向西转西南
能見度: 10公里
少量云层高于25000英尺
从 18日的 1800点(UTC)
风速15节,风向,有时为24节阵风
能見度: 10公里
天空无云

TAF: KLBL 172334Z 1800/1824 25010KT P6SM FEW250 FM181800 35015G24KT P6SM SKC

超过4000个机场的气象观测和天气预报(METAR&TAF报告)。

可查询的气象台以黄色和红色小点在地图上表示。

将鼠标移到小点上方,可查看气象台名称。

然后点击查看天气观测和预报。

如需切换地图:点击带黑十字的绿色按钮放大地图;点击带横线的绿色按钮缩小地图;或者点击绿色箭头查看邻近地区的地图。


METAR-TAF: